Latest Weather Observations for Parawa West

IDS60801

Issued at 1:01 pm CST Tuesday 27 September 2016 (issued every 30 minutes, with the page automatically refreshed every 10 minutes)

About weather observations | Map of weather stations | Latest weather observations for SA | Other Formats
Station Details ID: 023875 Name: SECOND VALLEY FOREST AWS Lat: -35.57 Lon: 138.29 Height: 341.0 m
Data from the previous 72 hours. | See also: Recent months at Parawa West
Date/Time
CST
Temp
°C
App
Temp
°C
Dew
Point
°C
Rel
Hum
%
Delta-T
°C
Wind Press
QNH
hPa
Press
MSL
hPa
Rain since
9am
mm
Dir  Spd
km/h
Gust
km/h
Spd
kts
Gust
kts
27/01:00pm 11.5 6.8 7.6 77 1.9 NW 22 33 12 18 1013.9 1013.9 0.2
27/12:30pm 11.7 7.0 7.8 77 1.9 NW 22 35 12 19 1014.2 1014.1 0.2
27/12:00pm 12.1 6.5 7.2 72 2.4 NW 26 39 14 21 1014.3 1014.2 0.2
27/11:30am 11.5 5.6 7.6 77 1.9 NW 28 41 15 22 1014.8 1014.8 0.2
27/11:00am 10.9 5.7 7.2 78 1.8 NW 24 37 13 20 1014.7 1014.7 0.2
27/10:30am 10.9 6.8 8.7 86 1.1 NW 20 35 11 19 1014.9 1014.9 0.2
27/10:00am 10.1 6.5 8.2 88 0.9 NW 17 28 9 15 1015.0 1015.0 0.2
27/09:30am 10.5 7.4 8.8 89 0.9 NW 15 22 8 12 1015.1 1015.1 0.0
27/09:00am 9.1 6.1 7.7 91 0.7 NW 13 19 7 10 1015.3 1015.3 3.0
27/08:30am 9.6 6.5 7.4 86 1.1 WNW 13 20 7 11 1015.1 1015.1 3.0
27/08:00am 9.1 6.7 7.2 88 0.9 WNW 9 15 5 8 1014.9 1014.9 3.0
27/07:30am 8.9 6.8 6.7 86 1.0 NW 7 9 4 5 1014.6 1014.6 3.0
27/07:00am 7.6 5.2 5.4 86 1.0 WNW 7 9 4 5 1014.3 1014.2 3.0
27/06:30am 7.1 4.3 5.1 87 0.9 WNW 9 11 5 6 1013.9 1013.9 3.0
27/06:00am 6.7 4.2 5.0 89 0.8 WNW 7 9 4 5 1013.7 1013.7 3.0
27/05:30am 6.3 3.7 4.3 87 0.9 WNW 7 9 4 5 1013.5 1013.5 3.0
27/05:00am 6.4 3.7 3.9 84 1.1 WNW 7 7 4 4 1013.3 1013.3 3.0
27/04:30am 6.6 4.0 4.1 84 1.1 WNW 7 9 4 5 1013.1 1013.1 3.0
27/04:00am 6.3 3.6 3.8 84 1.1 WNW 7 11 4 6 1013.0 1013.0 3.0
27/03:30am 6.1 3.0 3.6 84 1.1 W 9 11 5 6 1012.8 1012.8 3.0
27/03:00am 6.4 3.4 3.9 84 1.1 W 9 15 5 8 1012.9 1012.9 3.0
27/02:30am 6.7 3.4 4.5 86 1.0 W 11 15 6 8 1013.1 1013.1 3.0
27/02:00am 6.5 3.6 4.8 89 0.8 W 9 13 5 7 1013.2 1013.2 3.0
27/01:30am 6.6 3.4 5.2 91 0.6 W 11 17 6 9 1013.5 1013.5 3.0
27/01:00am 6.9 3.9 5.8 93 0.5 W 11 17 6 9 1013.7 1013.7 3.0
27/12:30am 7.0 3.6 5.9 93 0.5 W 13 17 7 9 1013.9 1013.9 3.0
27/12:00am 7.1 4.5 5.9 92 0.6 W 9 13 5 7 1014.0 1014.0 3.0
 
Date/Time
CST
Temp
°C
App
Temp
°C
Dew
Point
°C
Rel
Hum
%
Delta-T
°C
Wind Press
QNH
hPa
Press
MSL
hPa
Rain since
9am
mm
Dir  Spd
km/h
Gust
km/h
Spd
kts
Gust
kts
26/11:30pm 7.6 4.6 6.1 90 0.7 W 11 19 6 10 1014.2 1014.1 3.0
26/11:00pm 7.5 4.5 6.1 91 0.6 W 11 15 6 8 1014.0 1014.0 3.0
26/10:30pm 7.0 4.3 5.5 90 0.7 W 9 13 5 7 1014.0 1014.0 3.0
26/10:00pm 7.3 3.8 5.6 89 0.8 W 13 19 7 10 1013.8 1013.8 3.0
26/09:30pm 7.6 3.7 5.4 86 1.0 W 15 22 8 12 1013.6 1013.6 3.0
26/09:00pm 7.5 3.5 4.8 83 1.2 W 15 20 8 11 1013.5 1013.5 3.0
26/08:30pm 7.5 3.9 5.1 85 1.1 W 13 17 7 9 1013.4 1013.4 3.0
26/08:00pm 7.8 3.9 5.3 84 1.1 W 15 22 8 12 1013.1 1013.1 3.0
26/07:30pm 7.8 3.8 5.1 83 1.2 W 15 20 8 11 1012.7 1012.7 3.0
26/07:00pm 7.6 4.5 5.4 86 1.0 W 11 15 6 8 1012.4 1012.4 3.0
26/06:30pm 7.8 4.8 5.8 87 0.9 W 11 19 6 10 1012.1 1012.1 3.0
26/06:00pm 8.6 5.7 6.7 88 0.9 W 11 19 6 10 1011.9 1011.9 3.0
26/05:30pm 9.0 4.6 7.5 90 0.7 WNW 20 30 11 16 1011.6 1011.5 3.0
26/05:00pm 8.9 4.0 6.9 87 1.0 WNW 22 35 12 19 1011.1 1011.0 2.6
26/04:30pm 9.8 3.7 6.5 80 1.6 WNW 28 46 15 25 1010.6 1010.6 2.2
26/04:25pm 9.8 3.6 6.0 77 1.8 WNW 28 46 15 25 1010.5 1010.5 2.2
26/04:00pm 10.2 3.2 6.0 75 2.0 WNW 32 46 17 25 1010.2 1010.2 2.2
26/03:30pm 11.1 4.9 6.0 71 2.4 WNW 28 46 15 25 1010.1 1010.1 2.2
26/03:00pm 11.1 3.5 5.8 70 2.5 WNW 35 54 19 29 1010.0 1010.0 2.2
26/02:30pm 11.0 3.6 4.9 66 2.8 WNW 33 57 18 31 1009.9 1009.9 2.2
26/02:00pm 11.4 2.8 4.8 64 3.1 WNW 39 59 21 32 1010.1 1010.1 2.2
26/01:35pm 11.3 4.1 5.2 66 2.9 WNW 32 56 17 30 1010.2 1010.2 2.2
26/01:30pm 11.2 4.1 5.5 68 2.7 WNW 32 50 17 27 1010.1 1010.1 2.2
26/01:03pm 11.7 5.2 6.6 71 2.5 WNW 30 50 16 27 1010.2 1010.2 2.2
26/01:00pm 11.4 4.5 6.3 71 2.4 WNW 32 50 17 27 1010.2 1010.2 2.2
26/12:32pm 11.2 5.1 6.7 74 2.2 WNW 28 52 15 28 1010.2 1010.2 2.0
26/12:30pm 11.3 4.9 7.0 75 2.1 WNW 30 46 16 25 1010.2 1010.2 2.0
26/12:10pm 10.3 3.2 5.5 72 2.2 WNW 32 50 17 27 1010.2 1010.2 2.0
26/12:00pm 10.5 4.9 7.0 79 1.7 WNW 26 37 14 20 1010.3 1010.3 2.0
26/11:30am 9.8 4.7 7.6 86 1.1 WNW 24 43 13 23 1010.5 1010.5 2.0
26/11:00am 8.9 4.9 6.5 85 1.1 WNW 17 30 9 16 1010.8 1010.8 2.0
26/10:30am 8.4 4.0 7.3 93 0.5 WNW 20 30 11 16 1011.1 1011.0 2.0
26/10:00am 8.3 3.6 7.9 97 0.2 W 22 33 12 18 1011.3 1011.2 1.2
26/09:30am 9.8 6.5 9.7 99 0.1 NW 17 28 9 15 1010.8 1010.8 0.2
26/09:00am 9.9 7.3 9.4 97 0.3 NNW 13 30 7 16 1011.1 1011.0 0.4
26/08:30am 10.3 8.1 9.4 94 0.5 NW 11 19 6 10 1010.8 1010.8 0.4
26/08:00am 9.7 6.6 8.8 94 0.4 NW 15 22 8 12 1010.7 1010.7 0.4
26/07:30am 9.5 5.8 7.9 90 0.8 NW 17 28 9 15 1010.5 1010.5 0.4
26/07:00am 7.6 5.2 7.0 96 0.3 NW 9 15 5 8 1010.4 1010.4 0.2
26/06:30am 6.3 4.6 5.9 97 0.2 WNW 4 6 2 3 1010.6 1010.6 0.2
26/06:00am 5.9 4.5 5.5 97 0.2 NW 2 6 1 3 1010.6 1010.6 0.2
26/05:30am 5.9 4.1 5.6 98 0.1 NW 4 6 2 3 1010.7 1010.7 0.2
26/05:00am 6.4 4.7 6.1 98 0.1 NW 4 6 2 3 1010.3 1010.3 0.2
26/04:30am 7.3 5.8 7.0 98 0.1 WNW 4 6 2 3 1010.4 1010.4 0.2
26/04:00am 6.7 5.5 6.3 97 0.2 NNW 2 4 1 2 1010.7 1010.7 0.2
26/03:30am 6.9 5.6 6.2 95 0.3 NNE 2 6 1 3 1010.7 1010.7 0.2
26/03:00am 7.7 6.5 6.5 92 0.6 N 2 4 1 2 1010.6 1010.6 0.2
26/02:30am 8.2 5.8 6.8 91 0.7 NNW 9 13 5 7 1011.8 1011.7 0.2
26/02:00am 8.3 5.6 7.2 93 0.5 NNW 11 15 6 8 1012.5 1012.5 0.0
26/01:30am 7.8 5.9 7.5 98 0.1 NNW 7 11 4 6 1012.8 1012.8 0.0
26/01:00am 7.4 6.0 7.1 98 0.1 NNW 4 9 2 5 1013.2 1013.2 0.0
26/12:30am 7.5 5.8 7.4 99 0.0 NNW 6 9 3 5 1013.5 1013.5 0.0
26/12:00am 6.8 5.6 6.5 98 0.1 NNW 2 7 1 4 1013.7 1013.7 0.0
 
Date/Time
CST
Temp
°C
App
Temp
°C
Dew
Point
°C
Rel
Hum
%
Delta-T
°C
Wind Press
QNH
hPa
Press
MSL
hPa
Rain since
9am
mm
Dir  Spd
km/h
Gust
km/h
Spd
kts
Gust
kts
25/11:30pm 7.2 5.4 7.1 99 0.0 NNW 6 9 3 5 1014.0 1014.0 0.0
25/11:00pm 6.9 5.7 6.6 98 0.1 N 2 4 1 2 1014.2 1014.1 0.0
25/10:30pm 7.4 6.3 7.1 98 0.1 NNW 2 7 1 4 1014.4 1014.4 0.0
25/10:00pm 7.5 5.8 7.4 99 0.0 NNW 6 7 3 4 1014.8 1014.8 0.0
25/09:30pm 7.6 5.8 7.3 98 0.1 N 6 9 3 5 1014.7 1014.7 0.0
25/09:00pm 7.6 6.2 7.2 97 0.2 NW 4 6 2 3 1014.5 1014.5 0.0
25/08:30pm 7.8 7.2 7.2 96 0.3 CALM 0 6 0 3 1014.3 1014.2 0.0
25/08:00pm 8.4 6.6 7.8 96 0.3 NNW 7 13 4 7 1014.3 1014.2 0.0
25/07:30pm 8.4 6.8 7.8 96 0.3 NNW 6 17 3 9 1014.2 1014.1 0.0
25/07:00pm 7.9 6.8 7.0 94 0.4 N 2 6 1 3 1013.8 1013.8 0.0
25/06:30pm 8.6 7.2 7.2 91 0.7 N 4 7 2 4 1013.4 1013.4 0.0
25/06:00pm 9.1 7.8 7.5 90 0.8 N 4 7 2 4 1013.4 1013.4 0.0
25/05:30pm 9.1 7.2 7.5 90 0.8 NNW 7 15 4 8 1013.2 1013.2 0.0
25/05:00pm 9.0 6.3 7.5 90 0.7 NNW 11 22 6 12 1013.2 1013.2 0.0
25/04:30pm 9.7 7.4 7.5 86 1.1 NW 9 15 5 8 1013.1 1013.1 0.0
25/04:00pm 10.3 7.9 7.2 81 1.5 NW 9 17 5 9 1013.0 1013.0 0.0
25/03:30pm 10.9 8.3 6.1 72 2.3 NNW 9 20 5 11 1012.8 1012.8 0.0
25/03:00pm 11.1 8.1 6.0 71 2.4 NNW 11 20 6 11 1012.8 1012.8 0.0
25/02:30pm 11.4 7.8 6.9 74 2.2 NW 15 24 8 13 1013.1 1013.1 0.0
25/02:00pm 11.6 8.2 7.5 76 2.0 NW 15 26 8 14 1013.3 1013.3 0.0
25/01:30pm 11.3 8.1 7.0 75 2.1 NW 13 20 7 11 1013.5 1013.5 0.0
25/01:00pm 10.4 6.0 6.5 77 1.9 NW 19 28 10 15 1013.9 1013.9 0.0
25/12:30pm 11.5 6.7 5.8 68 2.7 NW 20 30 11 16 1014.0 1014.0 0.0
25/12:00pm 11.3 6.8 4.3 62 3.2 WNW 17 22 9 12 1014.2 1014.1 0.0
25/11:30am 11.4 6.8 3.9 60 3.4 WNW 17 24 9 13 1014.4 1014.4 0.0
25/11:00am 11.4 6.3 2.9 56 3.8 WNW 19 28 10 15 1014.6 1014.6 0.0
25/10:30am 11.1 6.7 2.9 57 3.6 WSW 15 22 8 12 1014.6 1014.6 0.0
25/10:00am 10.7 6.3 2.8 58 3.5 WSW 15 24 8 13 1014.8 1014.8 0.0
25/09:30am 10.2 6.5 4.6 68 2.6 WSW 13 20 7 11 1015.0 1015.0 0.0
25/09:00am 9.4 4.9 4.2 70 2.3 W 17 22 9 12 1015.1 1015.1 0.8
25/08:30am 9.0 4.8 5.6 79 1.6 W 17 24 9 13 1015.1 1015.1 0.8
25/08:00am 9.4 6.0 5.8 78 1.7 W 13 22 7 12 1014.9 1014.9 0.8
25/07:30am 8.1 5.0 5.4 83 1.2 W 11 15 6 8 1014.5 1014.5 0.8
25/07:00am 8.1 5.0 5.7 85 1.1 W 11 15 6 8 1014.0 1014.0 0.8
25/06:30am 7.1 3.9 5.1 87 0.9 W 11 17 6 9 1013.6 1013.6 0.8
25/06:00am 6.4 3.1 4.4 87 0.9 W 11 15 6 8 1013.3 1013.3 0.8
25/05:30am 6.3 2.6 4.5 88 0.8 W 13 17 7 9 1012.9 1012.9 0.8
25/05:00am 6.3 3.4 4.5 88 0.8 W 9 13 5 7 1012.4 1012.4 0.8
25/04:30am 6.3 3.4 4.6 89 0.8 W 9 13 5 7 1012.2 1012.2 0.8
25/04:00am 6.1 2.8 4.4 89 0.7 W 11 15 6 8 1012.1 1012.1 0.8
25/03:30am 6.5 3.2 4.3 86 1.0 WNW 11 15 6 8 1012.0 1012.0 0.8
25/03:00am 7.0 4.0 4.3 83 1.2 W 9 13 5 7 1011.5 1011.4 0.8
25/02:30am 7.3 4.5 5.3 87 0.9 W 9 13 5 7 1011.4 1011.3 0.8
25/02:00am 7.3 3.7 5.1 86 1.0 W 13 19 7 10 1011.8 1011.7 0.8
25/01:30am 7.0 3.4 5.2 88 0.8 W 13 17 7 9 1012.0 1012.0 0.8
25/01:00am 7.0 4.1 4.8 86 1.0 W 9 13 5 7 1011.9 1011.9 0.8
25/12:30am 7.3 4.5 5.0 85 1.0 W 9 13 5 7 1011.9 1011.9 0.8
25/12:00am 7.3 3.6 4.4 82 1.3 W 13 19 7 10 1012.0 1012.0 0.8
 
Date/Time
CST
Temp
°C
App
Temp
°C
Dew
Point
°C
Rel
Hum
%
Delta-T
°C
Wind Press
QNH
hPa
Press
MSL
hPa
Rain since
9am
mm
Dir  Spd
km/h
Gust
km/h
Spd
kts
Gust
kts
24/11:30pm 7.4 4.2 4.9 84 1.1 WSW 11 17 6 9 1012.0 1012.0 0.8
24/11:00pm 7.3 3.6 4.6 83 1.2 WSW 13 24 7 13 1011.9 1011.9 0.8
24/10:30pm 7.2 3.8 3.8 79 1.5 W 11 13 6 7 1011.9 1011.9 0.8
24/10:00pm 7.2 3.3 3.3 76 1.7 W 13 17 7 9 1011.8 1011.7 0.8
24/09:30pm 7.7 3.8 3.2 73 1.9 W 13 20 7 11 1011.8 1011.7 0.8
24/09:00pm 7.9 3.7 3.9 76 1.8 WSW 15 20 8 11 1011.7 1011.6 0.8
24/08:30pm 8.2 4.2 5.0 80 1.5 WSW 15 26 8 14 1011.4 1011.3 0.8
24/08:00pm 8.2 4.9 4.8 79 1.5 WSW 11 17 6 9 1010.8 1010.8 0.8
24/07:30pm 8.3 5.5 5.2 81 1.4 SW 9 15 5 8 1010.2 1010.2 0.8
24/07:00pm 8.5 5.3 5.3 80 1.5 SW 11 19 6 10 1009.8 1009.8 0.8
24/06:30pm 9.0 5.1 5.2 77 1.7 SW 15 22 8 12 1009.4 1009.4 0.8
24/06:00pm 9.8 4.6 5.6 75 2.0 SW 22 35 12 19 1009.0 1008.9 0.8
24/05:30pm 10.1 5.8 6.8 80 1.6 SSW 19 28 10 15 1008.5 1008.4 0.8
24/05:00pm 10.9 7.0 7.2 78 1.8 SW 17 30 9 16 1007.8 1007.8 0.8
24/04:30pm 10.6 6.7 7.3 80 1.6 SSW 17 28 9 15 1007.4 1007.4 0.8
24/04:00pm 10.6 6.3 7.8 83 1.4 SW 20 33 11 18 1007.0 1007.0 0.8
24/03:30pm 11.6 7.5 8.5 81 1.6 SW 20 33 11 18 1006.5 1006.4 0.8
24/03:00pm 11.9 7.6 9.5 85 1.2 SSW 22 33 12 18 1006.1 1006.0 0.8
24/02:30pm 12.5 8.9 8.4 76 2.1 SW 17 26 9 14 1005.9 1005.8 0.8
24/02:00pm 11.8 8.9 9.5 86 1.2 SW 15 24 8 13 1005.8 1005.7 0.8
24/01:30pm 11.5 7.5 8.9 84 1.3 SSW 20 32 11 17 1005.6 1005.5 0.4

Other Formats:

Comma delimited format used in spreadsheet applications
http://www.bom.gov.au/fwo/IDS60801/IDS60801.94811.axf

JavaScript Object Notation format (JSON) in row-major order
http://www.bom.gov.au/fwo/IDS60801/IDS60801.94811.json